Time;durP1;ratioP1;P1;durP2;ratioP2;P2;SDS_P1;SDS_P2;PMS_P1;PMS_P2;Temp;Humidity;BMP_temperature;BMP_pressure;BME280_temperature;BME280_humidity;BME280_pressure;Samples;Min_cycle;Max_cycle;Signal;HPM_P1;HPM_P2
2022/06/16 00:01:29;;;;;;;9.55;4.57;;;;;;;14.56;100.00;164373.38;5070910;28;20051;-61
2022/06/16 00:03:54;;;;;;;4.85;3.53;;;;;;;14.53;100.00;164365.28;5071804;28;20379;-61
2022/06/16 00:06:19;;;;;;;8.20;4.38;;;;;;;14.52;100.00;164361.25;5070730;28;20450;-61
2022/06/16 00:08:45;;;;;;;8.98;3.67;;;;;;;14.52;100.00;164362.59;5072268;28;20024;-61
2022/06/16 00:11:16;;;;;;;5.00;4.43;;;;;;;14.47;100.00;164349.06;5069999;28;20051;-61
2022/06/16 00:13:41;;;;;;;10.88;5.40;;;;;;;14.45;100.00;164343.66;5072138;28;20033;-60
2022/06/16 00:16:08;;;;;;;10.30;3.83;;;;;;;14.44;100.00;164342.25;5070360;28;20106;-60
2022/06/16 00:18:33;;;;;;;7.53;4.65;;;;;;;14.44;100.00;164340.94;5071691;28;20030;-60
2022/06/16 00:20:58;;;;;;;9.65;4.25;;;;;;;14.40;100.00;164330.13;5070338;28;20044;-61
2022/06/16 00:23:24;;;;;;;12.25;3.78;;;;;;;14.33;100.00;164312.53;5071993;28;20012;-60
2022/06/16 00:25:49;;;;;;;6.90;4.18;;;;;;;14.26;100.00;164294.91;5069438;28;20052;-60
2022/06/16 00:28:14;;;;;;;6.32;4.07;;;;;;;14.23;100.00;164286.81;5071620;28;20486;-60
2022/06/16 00:30:40;;;;;;;9.10;4.57;;;;;;;14.20;100.00;164278.69;5070426;28;20040;-61
2022/06/16 00:33:06;;;;;;;6.18;3.97;;;;;;;14.17;100.00;164270.59;5071297;28;20036;-61
2022/06/16 00:35:32;;;;;;;7.10;3.90;;;;;;;14.12;100.00;164258.41;5070141;28;20411;-59
2022/06/16 00:37:57;;;;;;;8.50;4.15;;;;;;;14.15;100.00;164265.19;5071176;28;20038;-60
2022/06/16 00:40:22;;;;;;;6.80;4.13;;;;;;;14.14;100.00;164262.47;5069864;28;20044;-60
2022/06/16 00:42:48;;;;;;;6.47;3.67;;;;;;;14.13;100.00;164259.75;5071564;28;20031;-59
2022/06/16 00:45:44;;;;;;;7.97;4.13;;;;;;;14.14;100.00;164262.47;5070315;28;20075;-59
2022/06/16 00:48:18;;;;;;;4.72;3.17;;;;;;;14.06;100.00;164240.81;5070743;28;20028;-59
2022/06/16 00:50:46;;;;;;;8.23;3.33;;;;;;;14.03;100.00;164232.72;5070296;28;20075;-59
2022/06/16 00:53:11;;;;;;;11.05;5.50;;;;;;;14.03;100.00;164234.06;5070582;28;20025;-59
2022/06/16 00:55:37;;;;;;;7.20;3.97;;;;;;;13.95;100.00;164213.78;5069711;28;20047;-60
2022/06/16 00:58:02;;;;;;;6.95;4.28;;;;;;;13.95;100.00;164213.78;5071169;28;20384;-60
2022/06/16 01:00:32;;;;;;;11.70;4.68;;;;;;;13.89;100.00;164197.53;5069313;28;20067;-61
2022/06/16 01:02:57;;;;;;;6.57;3.50;;;;;;;13.84;100.00;164184.00;5069917;28;20155;-60
2022/06/16 01:05:23;;;;;;;6.20;2.90;;;;;;;13.76;100.00;164163.75;5069549;28;20514;-61
2022/06/16 01:07:49;;;;;;;12.27;4.28;;;;;;;13.73;100.00;164155.63;5071002;28;20032;-61
2022/06/16 01:10:17;;;;;;;7.88;3.72;;;;;;;13.71;100.00;164148.84;5069274;28;20052;-61
2022/06/16 01:16:10;;;;;;;;;;;;;;;13.71;100.00;164148.84;5069688;28;20048;-61
2022/06/16 01:18:47;;;;;;;6.07;4.22;;;;;;;13.69;100.00;164143.44;5070765;28;19908;-61
2022/06/16 01:21:42;;;;;;;4.18;3.70;;;;;;;13.67;100.00;164138.00;5069332;28;20043;-62
2022/06/16 01:24:31;;;;;;;5.93;3.42;;;;;;;13.60;100.00;164121.78;5069445;28;20549;-58
2022/06/16 01:26:57;;;;;;;6.72;5.57;;;;;;;13.59;100.00;164119.09;5069130;28;20040;-59
2022/06/16 01:29:28;;;;;;;4.53;4.10;;;;;;;13.56;100.00;164109.63;5070907;28;20115;-59
2022/06/16 01:32:03;;;;;;;6.53;4.50;;;;;;;13.53;100.00;164102.88;5068593;28;20047;-59
2022/06/16 01:34:34;;;;;;;4.82;3.70;;;;;;;13.45;100.00;164081.22;5070657;28;20102;-59
2022/06/16 01:37:31;;;;;;;5.55;3.60;;;;;;;13.33;100.00;164051.44;5068647;28;20111;-59
2022/06/16 01:40:06;;;;;;;9.90;5.50;;;;;;;13.21;100.00;164019.03;5060636;28;20546;-59
2022/06/16 01:42:41;;;;;;;3.55;3.15;;;;;;;13.12;100.00;163994.66;5049018;28;20040;-59
2022/06/16 01:45:33;;;;;;;4.82;4.13;;;;;;;13.00;100.00;163964.91;5050549;28;20059;-59
2022/06/16 01:48:00;;;;;;;3.95;3.38;;;;;;;12.95;100.00;163951.41;5048932;28;20056;-59
2022/06/16 01:50:32;;;;;;;9.55;4.68;;;;;;;12.88;100.00;163931.16;5050435;28;20027;-59
2022/06/16 01:53:06;;;;;;;8.73;4.13;;;;;;;12.86;100.00;163927.06;5064555;28;20055;-59
2022/06/16 01:55:35;;;;;;;9.48;5.47;;;;;;;12.79;100.00;163908.13;5070150;28;20031;-59
2022/06/16 01:58:09;;;;;;;7.15;4.30;;;;;;;12.76;100.00;163900.06;5068595;28;20036;-59
2022/06/16 02:00:35;;;;;;;7.75;4.60;;;;;;;12.70;100.00;163886.50;5069927;28;20024;-59
2022/06/16 02:03:19;;;;;;;7.32;4.13;;;;;;;12.69;100.00;163882.47;5068489;28;20661;-59
2022/06/16 02:05:53;;;;;;;11.43;5.80;;;;;;;12.63;100.00;163866.25;5069247;28;20048;-58
2022/06/16 02:08:25;;;;;;;4.15;3.70;;;;;;;12.59;100.00;163856.78;5070151;28;20020;-59
2022/06/16 02:11:14;;;;;;;9.20;4.05;;;;;;;12.55;100.00;163845.97;5068825;28;20029;-60
2022/06/16 02:13:45;;;;;;;4.60;4.13;;;;;;;12.51;100.00;163835.16;5072211;28;20376;-60
2022/06/16 02:16:21;;;;;;;5.13;3.70;;;;;;;12.40;100.00;163806.78;5072243;28;20119;-60
2022/06/16 02:18:51;;;;;;;6.97;4.25;;;;;;;12.27;100.00;163771.66;5074347;28;20035;-60
2022/06/16 02:21:31;;;;;;;6.05;4.05;;;;;;;12.13;100.00;163735.16;5072927;28;20032;-59
2022/06/16 02:23:57;;;;;;;7.10;4.60;;;;;;;12.01;100.00;163705.47;5073261;28;20112;-59
2022/06/16 02:26:23;;;;;;;5.05;4.25;;;;;;;11.86;100.00;163664.91;5072534;28;20052;-59
2022/06/16 02:28:51;;;;;;;9.15;4.78;;;;;;;11.84;100.00;163659.47;5073933;28;20028;-60
2022/06/16 02:31:31;;;;;;;7.97;4.40;;;;;;;11.87;100.00;163667.59;5072387;28;20040;-60
2022/06/16 02:34:11;;;;;;;8.18;4.78;;;;;;;11.87;100.00;163668.94;5073876;28;20155;-60
2022/06/16 02:36:59;;;;;;;7.40;5.32;;;;;;;11.87;100.00;163667.59;5072492;28;20032;-60
2022/06/16 02:39:36;;;;;;;6.40;3.70;;;;;;;11.91;100.00;163678.38;5073908;28;20131;-60
2022/06/16 02:42:10;;;;;;;6.30;4.57;;;;;;;11.86;100.00;163664.91;5054235;28;20036;-60
2022/06/16 02:45:05;;;;;;;5.38;4.88;;;;;;;11.75;100.00;163637.84;5053644;28;20484;-61
2022/06/16 02:47:56;;;;;;;11.13;6.28;;;;;;;11.68;100.00;163618.94;5065830;28;20411;-60
2022/06/16 02:50:44;;;;;;;9.95;6.82;;;;;;;11.61;100.00;163598.72;5072585;28;20094;-60
2022/06/16 02:53:38;;;;;;;7.22;5.25;;;;;;;11.54;100.00;163581.13;5072987;28;20052;-60
2022/06/16 02:56:14;;;;;;;7.55;5.72;;;;;;;11.43;100.00;163554.09;5071968;28;20073;-60
2022/06/16 02:58:43;;;;;;;10.27;5.25;;;;;;;11.35;100.00;163532.53;5073886;28;20020;-60
2022/06/16 03:01:09;;;;;;;;;;;;;;;11.31;100.00;163521.72;5071991;28;20040;-60
2022/06/16 03:03:36;;;;;;;15.85;5.93;;;;;;;11.22;100.00;163498.75;5073315;28;19931;-60
2022/06/16 03:06:01;;;;;;;12.75;6.22;;;;;;;11.20;100.00;163492.03;5071528;28;20138;-57
2022/06/16 03:08:29;;;;;;;13.93;6.18;;;;;;;11.11;100.00;163470.41;5069804;28;20742;-61
2022/06/16 03:10:58;;;;;;;9.45;5.63;;;;;;;10.96;100.00;163429.91;5060782;28;20665;-60
2022/06/16 03:13:27;;;;;;;10.85;7.95;;;;;;;10.97;100.00;163432.63;5062091;28;20033;-60
2022/06/16 03:15:54;;;;;;;10.77;6.90;;;;;;;10.91;100.00;163417.75;5059853;28;20078;-59
2022/06/16 03:18:20;;;;;;;7.85;6.13;;;;;;;10.93;100.00;163421.78;5062512;28;20129;-59
2022/06/16 03:20:47;;;;;;;9.20;6.80;;;;;;;10.82;100.00;163392.09;5065709;28;20044;-60
2022/06/16 03:23:12;;;;;;;9.68;7.13;;;;;;;10.86;100.00;163402.88;5061468;28;20451;-60
2022/06/16 03:25:38;;;;;;;10.23;6.25;;;;;;;10.83;100.00;163394.81;5061090;28;20056;-59
2022/06/16 03:28:04;;;;;;;10.32;7.07;;;;;;;10.75;100.00;163375.91;5068698;28;20119;-59
2022/06/16 03:30:31;;;;;;;11.18;8.52;;;;;;;10.71;100.00;163365.09;5071204;28;20056;-60
2022/06/16 03:32:56;;;;;;;10.95;6.35;;;;;;;10.69;100.00;163359.66;5072949;28;20032;-60
2022/06/16 03:35:21;;;;;;;9.02;7.55;;;;;;;10.70;100.00;163362.38;5071391;28;20109;-59
2022/06/16 03:37:47;;;;;;;8.60;7.45;;;;;;;10.68;100.00;163357.03;5072245;28;20027;-60
2022/06/16 03:40:13;;;;;;;11.35;8.07;;;;;;;10.59;100.00;163334.03;5071589;28;20044;-60
2022/06/16 03:42:39;;;;;;;7.95;6.95;;;;;;;10.51;100.00;163312.44;5072389;28;20019;-59
2022/06/16 03:45:05;;;;;;;10.57;8.10;;;;;;;10.41;100.00;163286.81;5070606;28;20025;-59
2022/06/16 03:47:31;;;;;;;7.90;7.10;;;;;;;10.33;100.00;163265.16;5072615;28;20024;-60
2022/06/16 03:49:57;;;;;;;17.17;9.27;;;;;;;10.28;100.00;163253.00;5071065;28;20028;-59
2022/06/16 03:52:22;;;;;;;15.20;9.25;;;;;;;10.26;100.00;163246.25;5071881;28;20490;-59
2022/06/16 03:54:47;;;;;;;12.63;8.05;;;;;;;10.25;100.00;163243.56;5070701;28;20438;-60
2022/06/16 03:57:13;;;;;;;14.10;7.97;;;;;;;10.26;100.00;163246.25;5072717;28;20016;-59
2022/06/16 03:59:38;;;;;;;11.50;8.02;;;;;;;10.33;100.00;163265.16;5072011;28;20024;-59
2022/06/16 04:02:04;;;;;;;19.23;11.68;;;;;;;10.38;100.00;163278.72;5070482;28;20052;-59
2022/06/16 04:04:29;;;;;;;16.08;9.95;;;;;;;10.45;100.00;163297.63;5072257;28;20530;-59
2022/06/16 04:06:55;;;;;;;27.48;9.77;;;;;;;10.47;100.00;163303.00;5070094;28;20036;-59
2022/06/16 04:09:20;;;;;;;25.77;9.05;;;;;;;10.44;100.00;163294.91;5072003;28;20027;-60
2022/06/16 04:11:45;;;;;;;13.98;8.88;;;;;;;10.50;100.00;163308.41;5070676;28;20125;-60
2022/06/16 04:14:13;;;;;;;18.25;9.75;;;;;;;10.50;100.00;163309.72;5070686;28;20123;-57
2022/06/16 04:16:41;;;;;;;15.02;8.20;;;;;;;10.48;100.00;163304.38;5070404;28;20056;-58
2022/06/16 04:19:07;;;;;;;12.00;10.07;;;;;;;10.50;100.00;163309.72;5071150;28;20021;-58
2022/06/16 04:21:35;;;;;;;10.68;9.43;;;;;;;10.58;100.00;163330.00;5069331;28;20499;-58
2022/06/16 04:24:00;;;;;;;17.70;9.43;;;;;;;10.67;100.00;163354.31;5070888;28;20028;-58
2022/06/16 04:26:26;;;;;;;11.02;9.27;;;;;;;10.85;100.00;163401.56;5057623;28;20052;-57
2022/06/16 04:28:51;;;;;;;17.20;11.57;;;;;;;11.07;100.00;163459.59;5059277;28;20274;-58
2022/06/16 04:31:16;;;;;;;9.02;8.13;;;;;;;11.29;100.00;163514.97;5070440;28;20040;-57
2022/06/16 04:33:42;;;;;;;9.45;8.60;;;;;;;11.50;100.00;163570.34;5071513;28;20027;-58
2022/06/16 04:36:08;;;;;;;12.00;10.65;;;;;;;11.70;100.00;163624.38;5068195;28;20044;-58
2022/06/16 04:38:33;;;;;;;12.45;9.63;;;;;;;11.86;100.00;163664.91;5071398;28;20024;-57
2022/06/16 04:40:58;;;;;;;16.63;9.95;;;;;;;11.98;100.00;163697.34;5069374;28;20082;-58
2022/06/16 04:43:25;;;;;;;14.73;9.70;;;;;;;12.09;100.00;163724.38;5071440;28;20305;-58
2022/06/16 04:45:50;;;;;;;9.73;8.68;;;;;;;12.17;100.00;163746.00;5069584;28;20052;-58
2022/06/16 04:48:16;;;;;;;13.00;7.35;;;;;;;12.25;100.00;163767.59;5071400;28;20021;-58
2022/06/16 04:50:42;;;;;;;16.33;7.85;;;;;;;12.33;100.00;163787.88;5069569;28;20044;-58
2022/06/16 04:53:07;;;;;;;7.95;6.55;;;;;;;12.38;100.00;163801.38;5071115;28;20433;-57
2022/06/16 04:55:34;;;;;;;16.35;8.40;;;;;;;12.51;100.00;163835.16;5069453;28;20097;-58
2022/06/16 04:58:00;;;;;;;10.02;7.70;;;;;;;12.61;100.00;163860.84;5070572;28;20526;-58
2022/06/16 05:00:26;;;;;;;13.00;7.43;;;;;;;12.60;100.00;163859.50;5069894;28;20043;-58
2022/06/16 05:02:51;;;;;;;10.82;7.03;;;;;;;12.67;100.00;163878.44;5071040;28;20017;-58
2022/06/16 05:05:17;;;;;;;11.88;6.25;;;;;;;12.66;100.00;163875.72;5069674;28;20040;-58
2022/06/16 05:07:42;;;;;;;13.93;7.15;;;;;;;12.78;100.00;163905.44;5071136;28;20044;-58
2022/06/16 05:10:08;;;;;;;7.32;5.60;;;;;;;12.78;100.00;163906.81;5069529;28;20033;-58
2022/06/16 05:12:33;;;;;;;14.85;7.28;;;;;;;12.82;100.00;163916.28;5061561;28;20043;-58
2022/06/16 05:14:59;;;;;;;12.05;6.72;;;;;;;12.94;100.00;163948.69;5057827;28;20334;-57
2022/06/16 05:17:24;;;;;;;9.07;5.82;;;;;;;13.06;100.00;163978.47;5060648;28;20048;-58
2022/06/16 05:19:50;;;;;;;8.70;5.15;;;;;;;13.11;100.00;163991.97;5059733;28;20020;-58
2022/06/16 05:22:16;;;;;;;14.70;6.50;;;;;;;13.17;100.00;164009.56;5058964;28;20013;-58
2022/06/16 05:24:41;;;;;;;13.45;5.57;;;;;;;13.22;100.00;164021.69;5060605;28;20132;-58
2022/06/16 05:27:07;;;;;;;8.85;5.63;;;;;;;13.19;100.00;164013.59;5060134;28;20047;-58
2022/06/16 05:29:32;;;;;;;8.35;5.68;;;;;;;13.31;100.00;164046.03;5061072;28;20066;-58
2022/06/16 05:31:58;;;;;;;7.28;5.10;;;;;;;13.33;100.00;164051.44;5057713;28;20037;-58
2022/06/16 05:34:23;;;;;;;13.80;5.05;;;;;;;13.48;100.00;164089.34;5063011;28;20099;-58
2022/06/16 05:36:49;;;;;;;5.75;4.50;;;;;;;13.43;100.00;164077.19;5056855;28;20036;-58
2022/06/16 05:39:15;;;;;;;8.63;5.00;;;;;;;13.27;100.00;164035.22;5060966;28;20070;-57
2022/06/16 05:41:41;;;;;;;11.63;4.72;;;;;;;13.30;100.00;164043.31;5058279;28;20033;-57
2022/06/16 05:44:08;;;;;;;6.55;5.05;;;;;;;13.39;100.00;164065.00;5064290;28;20043;-58
2022/06/16 05:46:33;;;;;;;8.10;4.85;;;;;;;13.51;100.00;164097.50;5056849;28;20120;-58
2022/06/16 05:48:59;;;;;;;6.55;4.15;;;;;;;13.64;100.00;164131.25;5060001;28;20464;-58
2022/06/16 05:51:24;;;;;;;15.32;5.78;;;;;;;13.78;100.00;164169.13;5061315;28;20040;-58
2022/06/16 05:53:50;;;;;;;8.48;5.20;;;;;;;13.90;100.00;164200.25;5069872;28;20120;-58
2022/06/16 05:56:16;;;;;;;7.78;4.22;;;;;;;14.02;100.00;164230.03;5063107;28;20072;-57
2022/06/16 05:58:42;;;;;;;10.63;5.00;;;;;;;14.00;100.00;164224.59;5060153;28;20016;-58
2022/06/16 06:01:08;;;;;;;8.80;3.95;;;;;;;14.03;100.00;164232.72;5058369;28;20045;-58
2022/06/16 06:03:33;;;;;;;6.60;4.53;;;;;;;14.09;100.00;164248.94;5058955;28;20421;-58
2022/06/16 06:05:59;;;;;;;13.25;4.63;;;;;;;14.22;100.00;164284.13;5057061;28;20350;-58
2022/06/16 06:16:42;;;;;;;5.95;3.65;;;;;;;14.62;100.00;164386.94;5049011;28;20404;-58
2022/06/16 06:19:26;;;;;;;5.75;2.97;;;;;;;14.81;100.00;164438.41;5049985;28;20021;-58
2022/06/16 06:22:02;;;;;;;5.57;3.08;;;;;;;14.91;100.00;164464.09;5048900;28;20718;-58
2022/06/16 06:24:34;;;;;;;5.82;3.13;;;;;;;14.99;100.00;164484.44;5050198;28;20049;-58
2022/06/16 06:27:09;;;;;;;4.10;3.33;;;;;;;15.22;100.00;164546.72;5048549;28;20541;-57
2022/06/16 06:29:34;;;;;;;5.57;2.65;;;;;;;15.27;100.00;164557.50;5050057;28;20104;-57
2022/06/16 06:32:01;;;;;;;3.85;3.13;;;;;;;15.62;100.00;164649.53;5047405;28;20036;-58
2022/06/16 06:34:27;;;;;;;4.03;2.50;;;;;;;15.81;100.00;164701.03;5049713;28;20538;-58
2022/06/16 06:36:52;;;;;;;6.80;2.45;;;;;;;15.81;100.00;164701.03;5048584;28;20045;-58
2022/06/16 06:39:18;;;;;;;13.43;3.55;;;;;;;15.63;100.00;164653.66;5050055;28;20380;-57
2022/06/16 06:41:43;;;;;;;6.63;2.55;;;;;;;15.69;100.00;164668.50;5048237;28;20037;-57
2022/06/16 06:44:09;;;;;;;7.95;2.53;;;;;;;15.69;100.00;164668.50;5050006;28;20029;-58
2022/06/16 06:46:34;;;;;;;4.50;2.28;;;;;;;16.02;100.00;164756.56;5048574;28;20068;-59
2022/06/16 06:49:00;;;;;;;7.68;3.85;;;;;;;15.99;100.00;164748.47;5049352;28;20032;-58
2022/06/16 06:51:25;;;;;;;7.70;3.30;;;;;;;16.09;100.00;164774.19;5048611;28;20033;-58
2022/06/16 06:53:50;;;;;;;8.93;3.35;;;;;;;16.40;100.00;164855.47;5049686;28;20036;-58
2022/06/16 06:56:16;;;;;;;6.97;2.88;;;;;;;16.44;100.00;164866.28;5048570;28;20045;-59
2022/06/16 06:58:41;;;;;;;6.40;2.45;;;;;;;16.68;100.00;164928.59;5050645;28;20025;-59
2022/06/16 07:01:07;;;;;;;4.80;2.72;;;;;;;16.74;100.00;164944.84;5052011;28;20056;-59
2022/06/16 07:03:33;;;;;;;7.30;2.38;;;;;;;16.84;100.00;164969.25;5053613;28;20488;-57
2022/06/16 07:06:03;;;;;;;4.35;2.05;;;;;;;16.98;100.00;165007.22;5051596;28;20113;-57
2022/06/16 07:08:30;;;;;;;6.85;2.65;;;;;;;17.08;100.00;165034.34;5053335;28;20025;-57
2022/06/16 07:10:56;;;;;;;6.15;2.55;;;;;;;16.86;100.00;164976.00;5051905;28;20067;-57
2022/06/16 07:13:21;;;;;;;7.95;1.75;;;;;;;16.89;100.00;164982.78;5052963;28;20032;-57
2022/06/16 07:15:46;;;;;;;4.30;2.15;;;;;;;16.98;100.00;165007.22;5051904;28;20048;-57
2022/06/16 07:18:12;;;;;;;6.20;2.72;;;;;;;17.11;100.00;165042.44;5053361;28;20472;-57
2022/06/16 07:20:37;;;;;;;6.85;2.03;;;;;;;17.12;100.00;165045.16;5051704;28;20396;-57
2022/06/16 07:23:03;;;;;;;3.42;2.13;;;;;;;17.04;100.00;165023.47;5053244;28;20578;-56
2022/06/16 07:25:28;;;;;;;5.85;2.38;;;;;;;17.19;100.00;165061.41;5051632;28;20527;-57
2022/06/16 07:27:53;;;;;;;5.43;2.50;;;;;;;17.46;100.00;165131.91;5052687;28;20036;-56
2022/06/16 07:30:21;;;;;;;7.35;2.75;;;;;;;17.46;100.00;165131.91;5051734;28;20064;-57
2022/06/16 07:32:47;;;;;;;1.70;1.20;;;;;;;17.50;100.00;165142.72;5053050;28;20298;-56
2022/06/16 07:35:15;;;;;;;2.78;2.38;;;;;;;17.51;100.00;165145.44;5051204;28;20388;-57
2022/06/16 07:37:41;;;;;;;2.70;1.85;;;;;;;17.41;100.00;165121.03;5053194;28;20021;-57
2022/06/16 07:40:07;;;;;;;2.05;1.30;;;;;;;17.40;100.00;165118.31;5051368;28;20187;-57
2022/06/16 07:42:33;;;;;;;4.13;1.83;;;;;;;17.65;100.00;165183.41;5052469;28;20033;-57
2022/06/16 07:44:59;;;;;;;1.73;1.17;;;;;;;17.71;100.00;165199.66;5051222;28;20055;-57
2022/06/16 07:47:25;;;;;;;1.75;1.33;;;;;;;17.72;100.00;165202.38;5052543;28;20082;-57
2022/06/16 07:49:50;;;;;;;4.40;2.13;;;;;;;17.90;100.00;165249.81;5050833;28;20074;-57
2022/06/16 07:52:16;;;;;;;10.95;1.70;;;;;;;17.92;100.00;165255.25;5052881;28;20102;-57
2022/06/16 07:54:43;;;;;;;5.97;1.70;;;;;;;17.98;100.00;165270.22;5052326;28;20031;-57
2022/06/16 07:57:09;;;;;;;5.13;2.20;;;;;;;18.30;100.00;165352.91;5050677;28;20508;-57
2022/06/16 07:59:35;;;;;;;4.63;1.40;;;;;;;18.21;100.00;165329.84;5052473;28;20032;-57
2022/06/16 08:02:00;;;;;;;4.18;1.67;;;;;;;18.61;100.00;165435.63;5050741;28;20033;-57
2022/06/16 08:04:26;;;;;;;3.38;1.45;;;;;;;18.59;100.00;165430.19;5052313;28;20415;-57
2022/06/16 08:06:51;;;;;;;4.70;1.73;;;;;;;18.71;100.00;165462.75;5050874;28;20120;-57
2022/06/16 08:09:17;;;;;;;3.10;1.50;;;;;;;19.18;100.00;165584.84;5052157;28;20441;-57
2022/06/16 08:14:26;;;;;;;2.20;1.20;;;;;;;19.30;100.00;165617.44;5052711;28;20483;-58
2022/06/16 08:16:52;;;;;;;3.05;1.55;;;;;;;19.70;100.00;165720.53;5050412;28;20037;-60
2022/06/16 08:19:18;;;;;;;1.38;1.27;;;;;;;20.08;100.00;165821.00;5052188;28;20056;-60
2022/06/16 08:21:43;;;;;;;7.63;1.67;;;;;;;20.20;100.00;165852.22;5053044;28;20521;-60
2022/06/16 08:24:09;;;;;;;7.63;2.17;;;;;;;20.16;100.00;165842.72;5068263;28;20071;-60
2022/06/16 08:26:36;;;;;;;3.53;1.48;;;;;;;19.97;100.00;165793.88;5069619;28;20109;-60
2022/06/16 08:29:02;;;;;;;2.55;1.25;;;;;;;19.44;100.00;165652.72;5054729;28;20025;-59
2022/06/16 08:31:27;;;;;;;16.00;2.03;;;;;;;19.53;100.00;165677.13;5065033;28;20515;-60
2022/06/16 08:33:52;;;;;;;6.88;2.05;;;;;;;19.56;100.00;165685.25;5071023;28;20052;-60
2022/06/16 08:36:19;;;;;;;1.35;1.25;;;;;;;19.55;100.00;165682.53;5070006;28;20051;-60
2022/06/16 08:38:45;;;;;;;2.33;1.65;;;;;;;19.86;100.00;165762.66;5071685;28;20502;-60
2022/06/16 08:41:17;;;;;;;7.05;2.15;;;;;;;20.14;100.00;165837.31;5053153;28;20128;-61
2022/06/16 08:44:00;;;;;;;2.88;1.65;;;;;;;20.55;100.00;165945.91;5051643;28;20352;-60
2022/06/16 08:46:32;;;;;;;2.45;1.15;;;;;;;20.59;100.00;165956.72;5063699;28;20048;-60
2022/06/16 08:49:05;;;;;;;5.93;1.77;;;;;;;20.38;100.00;165899.72;5071057;28;20120;-60
2022/06/16 08:51:51;;;;;;;5.22;1.20;;;;;;;20.64;100.00;165967.63;5069840;28;20120;-60
2022/06/16 08:54:44;;;;;;;6.63;2.17;;;;;;;20.64;99.98;165967.63;5070832;28;20040;-60
2022/06/16 08:57:24;;;;;;;3.75;1.50;;;;;;;20.77;100.00;166002.97;5069426;28;20040;-60
2022/06/16 09:00:09;;;;;;;3.15;1.55;;;;;;;20.74;96.08;165996.19;5069911;28;20021;-60
2022/06/16 09:02:40;;;;;;;4.78;1.60;;;;;;;20.92;97.10;166042.38;5052996;28;20146;-60
2022/06/16 09:05:43;;;;;;;2.75;1.40;;;;;;;21.46;93.99;166184.94;5049418;28;20025;-60
2022/06/16 09:08:24;;;;;;;7.03;1.38;;;;;;;21.59;91.44;166217.56;5042490;28;20037;-60
2022/06/16 09:11:09;;;;;;;8.73;1.70;;;;;;;21.27;90.89;166134.69;5049242;28;20403;-60
2022/06/16 09:13:58;;;;;;;2.45;1.50;;;;;;;21.33;88.63;166149.63;5051016;28;20029;-58
2022/06/16 09:17:05;;;;;;;5.45;1.98;;;;;;;21.39;88.07;166165.94;5058657;28;20043;-58
2022/06/16 09:19:50;;;;;;;7.68;2.47;;;;;;;21.87;91.05;166292.28;5070602;28;20064;-58
2022/06/16 09:22:37;;;;;;;1.85;1.30;;;;;;;21.64;85.88;166232.53;5069520;28;20044;-58
2022/06/16 09:25:25;;;;;;;2.92;1.45;;;;;;;21.49;85.93;166193.06;5068434;28;20511;-58
2022/06/16 09:27:56;;;;;;;6.25;1.55;;;;;;;21.31;87.26;166144.19;5070329;28;20023;-58
2022/06/16 09:30:28;;;;;;;7.80;2.55;;;;;;;21.32;88.16;166146.91;5053100;28;20051;-58
2022/06/16 09:33:02;;;;;;;8.13;1.85;;;;;;;21.79;92.68;166271.91;5070211;28;20298;-58
2022/06/16 09:35:37;;;;;;;5.05;1.55;;;;;;;22.16;88.87;166369.72;5069046;28;20123;-59
2022/06/16 09:38:39;;;;;;;2.67;1.80;;;;;;;22.12;85.11;166358.84;5070142;28;20119;-58
2022/06/16 09:41:04;;;;;;;3.60;1.60;;;;;;;22.13;88.44;166360.19;5068456;28;20044;-58
2022/06/16 09:43:41;;;;;;;18.08;1.67;;;;;;;21.94;86.74;166309.94;5070261;28;20104;-58
2022/06/16 09:46:20;;;;;;;5.60;1.85;;;;;;;21.83;88.24;166281.41;5066734;28;20774;-58
2022/06/16 09:48:55;;;;;;;4.53;1.70;;;;;;;21.93;89.09;166307.25;5057185;28;20020;-58
2022/06/16 09:51:35;;;;;;;8.38;2.15;;;;;;;21.77;85.98;166265.09;5056813;28;20098;-58
2022/06/16 09:54:09;;;;;;;4.68;1.58;;;;;;;21.96;89.07;166315.38;5066031;28;20078;-58
2022/06/16 09:56:43;;;;;;;5.65;1.95;;;;;;;21.74;86.22;166258.31;5048654;28;20093;-58
2022/06/16 09:59:16;;;;;;;2.80;2.15;;;;;;;21.66;86.87;166236.59;5050171;28;20531;-58
2022/06/16 10:01:49;;;;;;;7.97;3.08;;;;;;;21.63;85.21;166228.47;5058554;28;20688;-58
2022/06/16 10:04:15;;;;;;;4.93;2.28;;;;;;;21.81;86.16;166277.34;5055258;28;20024;-58
2022/06/16 10:06:59;;;;;;;3.15;1.98;;;;;;;21.87;88.58;166293.63;5064793;28;20045;-58
2022/06/16 10:09:37;;;;;;;7.53;2.60;;;;;;;22.04;85.75;166337.13;5049744;28;20029;-58
2022/06/16 10:12:26;;;;;;;4.60;1.90;;;;;;;22.63;91.04;166493.44;5062984;28;20120;-58
2022/06/16 10:15:16;;;;;;;5.78;2.55;;;;;;;23.24;87.93;166652.50;5068171;28;20024;-58
2022/06/16 10:17:43;;;;;;;6.57;1.80;;;;;;;22.94;83.70;166573.63;5069869;28;20071;-58
2022/06/16 10:20:11;;;;;;;2.38;1.80;;;;;;;22.80;83.02;166536.91;5068559;28;20044;-58
2022/06/16 10:22:39;;;;;;;3.45;2.67;;;;;;;22.67;86.02;166502.97;5070311;28;20103;-58
2022/06/16 10:25:23;;;;;;;4.68;2.28;;;;;;;22.60;85.91;166483.94;5068149;28;20123;-58
2022/06/16 10:27:56;;;;;;;5.75;2.67;;;;;;;22.45;85.42;166444.50;5069994;28;20436;-58
2022/06/16 10:30:37;;;;;;;2.90;2.00;;;;;;;22.77;85.37;166530.13;5068719;28;20037;-58
2022/06/16 10:33:03;;;;;;;3.08;2.58;;;;;;;22.65;84.83;166498.84;5069491;28;20036;-58
2022/06/16 10:35:28;;;;;;;5.57;2.97;;;;;;;22.72;84.57;166516.53;5072623;28;20123;-58
2022/06/16 10:37:54;;;;;;;3.20;1.95;;;;;;;23.01;83.78;166591.31;5073681;28;20032;-58
2022/06/16 10:40:38;;;;;;;4.13;2.17;;;;;;;22.54;83.31;166468.97;5072377;28;20040;-60
2022/06/16 10:43:16;;;;;;;4.07;2.10;;;;;;;22.62;85.13;166489.34;5073764;28;20455;-58
2022/06/16 10:45:42;;;;;;;2.08;1.67;;;;;;;22.46;82.72;166448.56;5071931;28;20036;-58
2022/06/16 10:48:49;;;;;;;6.68;1.85;;;;;;;23.17;85.43;166633.41;5073162;28;20036;-58
2022/06/16 10:51:19;;;;;;;12.43;2.45;;;;;;;22.88;81.65;166557.31;5047489;28;20047;-58
2022/06/16 10:53:48;;;;;;;11.00;2.95;;;;;;;23.04;83.40;166600.81;5058041;28;20033;-58
2022/06/16 10:56:22;;;;;;;6.35;1.92;;;;;;;22.91;83.17;166565.44;5072061;28;20072;-58
2022/06/16 10:58:56;;;;;;;5.97;2.00;;;;;;;23.06;85.69;166606.22;5069325;28;20707;-58
2022/06/16 11:01:29;;;;;;;2.13;1.83;;;;;;;23.34;85.58;166679.72;5071056;28;20078;-58
2022/06/16 11:04:06;;;;;;;5.15;2.30;;;;;;;23.48;83.99;166715.03;5071731;28;20016;-58
2022/06/16 11:06:32;;;;;;;3.72;2.53;;;;;;;23.49;82.26;166719.09;5071347;28;20044;-58
2022/06/16 11:09:01;;;;;;;2.58;2.22;;;;;;;23.66;79.54;166763.97;5072990;28;20032;-58
2022/06/16 11:11:45;;;;;;;5.75;2.35;;;;;;;23.34;80.61;166679.72;5068814;28;20048;-58
2022/06/16 11:14:18;;;;;;;6.72;1.92;;;;;;;23.38;80.43;166689.22;5067023;28;20644;-58
2022/06/16 11:16:50;;;;;;;7.25;2.50;;;;;;;23.73;78.92;166783.00;5051553;28;20037;-58
2022/06/16 11:19:26;;;;;;;11.27;2.00;;;;;;;23.82;78.71;166806.16;5068463;28;20081;-58
2022/06/16 11:21:53;;;;;;;8.45;2.35;;;;;;;24.57;78.76;167003.38;5071602;28;20047;-58
2022/06/16 11:24:28;;;;;;;9.27;3.22;;;;;;;25.00;79.58;167117.69;5072604;28;20016;-58
2022/06/16 11:27:12;;;;;;;5.22;2.25;;;;;;;25.49;76.62;167245.69;5071380;28;20067;-58
2022/06/16 11:29:39;;;;;;;4.60;2.20;;;;;;;24.52;72.17;166991.13;5073281;28;20024;-58
2022/06/16 11:32:18;;;;;;;5.27;2.17;;;;;;;23.90;76.09;166827.88;5070752;28;20079;-58
2022/06/16 11:34:44;;;;;;;5.65;2.03;;;;;;;23.92;77.39;166831.97;5072848;28;20401;-58
2022/06/16 11:37:11;;;;;;;3.88;2.03;;;;;;;23.92;75.51;166831.97;5056151;28;20075;-58
2022/06/16 11:40:14;;;;;;;3.33;2.60;;;;;;;23.34;76.12;166679.72;5053931;28;20059;-58
2022/06/16 11:43:00;;;;;;;8.40;3.03;;;;;;;23.27;77.74;166660.69;5071458;28;20037;-57
2022/06/16 11:45:36;;;;;;;6.60;2.53;;;;;;;23.58;79.48;166743.59;5071269;28;20041;-57
2022/06/16 11:48:12;;;;;;;6.85;1.70;;;;;;;23.48;79.26;166716.38;5072691;28;20024;-57